RPA3477 CYOW-KEWR
Flight info
| Callsign | RPA3477 |
|---|---|
| Flight time | N/A |
| Altitude | 27000 |
| Route | IKLAX DCT ALB FLOSI4 |
| Aircraft | E175/M-SDE3GILORVW/S |
Departure
| Time | N/A |
|---|---|
| Airport | Ottawa Macdonald-Cartier International Airport (CYOW) |
Arrival
| Time | 2026-04-23 00:29 |
|---|---|
| Airport | Newark Liberty International Airport (KEWR) |
| Time | Latitude | Longitude | Altitude | Speed | Heading |
|---|---|---|---|---|---|
| 2026-04-23 00:25 | 40.86414 | -74.07884 | 2993 ft | 223 kts | 173° |
| 2026-04-23 00:25 | 40.84882 | -74.07553 | 3000 ft | 223 kts | 175° |
| 2026-04-23 00:25 | 40.83355 | -74.07587 | 2917 ft | 221 kts | 198° |
| 2026-04-23 00:26 | 40.81945 | -74.08374 | 2626 ft | 220 kts | 210° |
| 2026-04-23 00:26 | 40.80579 | -74.09271 | 2364 ft | 220 kts | 206° |
| 2026-04-23 00:26 | 40.79187 | -74.10106 | 2117 ft | 217 kts | 207° |
| 2026-04-23 00:26 | 40.77853 | -74.10974 | 1935 ft | 196 kts | 208° |
| 2026-04-23 00:27 | 40.76742 | -74.11689 | 1642 ft | 177 kts | 206° |
| 2026-04-23 00:27 | 40.75680 | -74.12363 | 1344 ft | 162 kts | 206° |
| 2026-04-23 00:27 | 40.74712 | -74.12985 | 1110 ft | 150 kts | 206° |
| 2026-04-23 00:27 | 40.73788 | -74.13576 | 894 ft | 145 kts | 204° |
| 2026-04-23 00:28 | 40.72893 | -74.14146 | 729 ft | 141 kts | 202° |
| 2026-04-23 00:28 | 40.71998 | -74.14719 | 547 ft | 144 kts | 204° |
| 2026-04-23 00:28 | 40.71106 | -74.15296 | 303 ft | 142 kts | 202° |
| 2026-04-23 00:28 | 40.70225 | -74.15852 | 68 ft | 139 kts | 204° |
| 2026-04-23 00:29 | 40.69413 | -74.16360 | 24 ft | 115 kts | 206° |
| 2026-04-23 00:29 | 40.68913 | -74.16703 | 18 ft | 57 kts | 213° |
| 2026-04-23 00:29 | 40.68704 | -74.16936 | 21 ft | 26 kts | 235° |
| 2026-04-23 00:29 | 40.68623 | -74.17139 | 20 ft | 24 kts | 287° |
| 2026-04-23 00:30 | 40.68687 | -74.17313 | 25 ft | 16 kts | 294° |
| 2026-04-23 00:30 | 40.68761 | -74.17429 | 22 ft | 19 kts | 2° |
| 2026-04-23 00:30 | 40.68897 | -74.17361 | 18 ft | 22 kts | 25° |
| 2026-04-23 00:30 | 40.69044 | -74.17267 | 16 ft | 25 kts | 27° |
| 2026-04-23 00:31 | 40.69194 | -74.17254 | 15 ft | 20 kts | 340° |
| 2026-04-23 00:31 | 40.69327 | -74.17287 | 15 ft | 17 kts | 17° |
| 2026-04-23 00:31 | 40.69354 | -74.17267 | 15 ft | 0 kts | 36° |